sensor_id;sensor_type;location;lat;lon;timestamp;pressure;altitude;pressure_sealevel;temperature;humidity
43119;BME280;28729;49.838;8.650;2023-12-20T00:01:50;99823.44;;;5.55;100.00
43119;BME280;28729;49.838;8.650;2023-12-20T00:05:52;99819.03;;;5.54;100.00
43119;BME280;28729;49.838;8.650;2023-12-20T00:09:54;99806.84;;;5.49;100.00
43119;BME280;28729;49.838;8.650;2023-12-20T00:13:56;99808.09;;;5.54;100.00
43119;BME280;28729;49.838;8.650;2023-12-20T00:17:58;99809.97;;;5.53;100.00
43119;BME280;28729;49.838;8.650;2023-12-20T00:22:00;99806.00;;;5.49;100.00
43119;BME280;28729;49.838;8.650;2023-12-20T00:26:03;99805.81;;;5.51;100.00
43119;BME280;28729;49.838;8.650;2023-12-20T00:30:05;99799.06;;;5.46;100.00
43119;BME280;28729;49.838;8.650;2023-12-20T00:34:07;99802.25;;;5.43;100.00
43119;BME280;28729;49.838;8.650;2023-12-20T00:38:10;99791.31;;;5.43;100.00
43119;BME280;28729;49.838;8.650;2023-12-20T00:42:12;99790.03;;;5.46;100.00
43119;BME280;28729;49.838;8.650;2023-12-20T00:46:14;99788.38;;;5.45;100.00
43119;BME280;28729;49.838;8.650;2023-12-20T00:50:17;99780.63;;;5.42;100.00
43119;BME280;28729;49.838;8.650;2023-12-20T00:54:19;99783.13;;;5.43;100.00
43119;BME280;28729;49.838;8.650;2023-12-20T00:58:20;99770.13;;;5.39;100.00
43119;BME280;28729;49.838;8.650;2023-12-20T01:02:22;99767.59;;;5.37;100.00
43119;BME280;28729;49.838;8.650;2023-12-20T01:06:24;99774.72;;;5.38;100.00
43119;BME280;28729;49.838;8.650;2023-12-20T01:10:26;99772.00;;;5.38;100.00
43119;BME280;28729;49.838;8.650;2023-12-20T01:14:30;99773.88;;;5.38;100.00
43119;BME280;28729;49.838;8.650;2023-12-20T01:18:32;99765.47;;;5.39;100.00
43119;BME280;28729;49.838;8.650;2023-12-20T01:22:33;99760.47;;;5.36;100.00
43119;BME280;28729;49.838;8.650;2023-12-20T01:26:37;99766.34;;;5.33;100.00
43119;BME280;28729;49.838;8.650;2023-12-20T01:30:39;99764.66;;;5.32;100.00
43119;BME280;28729;49.838;8.650;2023-12-20T01:34:41;99763.00;;;5.31;100.00
43119;BME280;28729;49.838;8.650;2023-12-20T01:38:43;99767.63;;;5.31;100.00
43119;BME280;28729;49.838;8.650;2023-12-20T01:42:44;99774.34;;;5.28;100.00
43119;BME280;28729;49.838;8.650;2023-12-20T01:46:47;99775.41;;;5.27;100.00
43119;BME280;28729;49.838;8.650;2023-12-20T01:50:49;99770.56;;;5.29;100.00
43119;BME280;28729;49.838;8.650;2023-12-20T01:54:51;99769.53;;;5.30;100.00
43119;BME280;28729;49.838;8.650;2023-12-20T01:58:53;99776.22;;;5.34;100.00
43119;BME280;28729;49.838;8.650;2023-12-20T02:02:55;99770.13;;;5.32;100.00
43119;BME280;28729;49.838;8.650;2023-12-20T02:06:58;99782.13;;;5.31;100.00
43119;BME280;28729;49.838;8.650;2023-12-20T02:11:01;99780.22;;;5.32;100.00
43119;BME280;28729;49.838;8.650;2023-12-20T02:15:03;99770.75;;;5.34;100.00
43119;BME280;28729;49.838;8.650;2023-12-20T02:19:12;99770.13;;;5.32;100.00
43119;BME280;28729;49.838;8.650;2023-12-20T02:23:14;99772.66;;;5.34;100.00
43119;BME280;28729;49.838;8.650;2023-12-20T02:27:18;99779.78;;;5.35;100.00
43119;BME280;28729;49.838;8.650;2023-12-20T02:31:21;99752.50;;;5.28;100.00
43119;BME280;28729;49.838;8.650;2023-12-20T02:35:24;99765.09;;;5.29;100.00
43119;BME280;28729;49.838;8.650;2023-12-20T02:39:25;99751.25;;;5.24;100.00
43119;BME280;28729;49.838;8.650;2023-12-20T02:43:27;99764.50;;;5.27;100.00
43119;BME280;28729;49.838;8.650;2023-12-20T02:47:29;99765.34;;;5.21;100.00
43119;BME280;28729;49.838;8.650;2023-12-20T02:51:31;99761.97;;;5.25;100.00
43119;BME280;28729;49.838;8.650;2023-12-20T02:55:33;99755.47;;;5.27;100.00
43119;BME280;28729;49.838;8.650;2023-12-20T02:59:35;99762.56;;;5.34;100.00
43119;BME280;28729;49.838;8.650;2023-12-20T03:03:36;99765.91;;;5.36;100.00
43119;BME280;28729;49.838;8.650;2023-12-20T03:07:38;99764.47;;;5.34;100.00
43119;BME280;28729;49.838;8.650;2023-12-20T03:11:40;99741.75;;;5.33;100.00
43119;BME280;28729;49.838;8.650;2023-12-20T03:15:42;99749.53;;;5.36;100.00
43119;BME280;28729;49.838;8.650;2023-12-20T03:19:44;99762.56;;;5.34;100.00
43119;BME280;28729;49.838;8.650;2023-12-20T03:23:45;99773.06;;;5.37;100.00
43119;BME280;28729;49.838;8.650;2023-12-20T03:27:47;99782.31;;;5.36;100.00
43119;BME280;28729;49.838;8.650;2023-12-20T03:31:49;99770.94;;;5.39;100.00
43119;BME280;28729;49.838;8.650;2023-12-20T03:35:51;99770.50;;;5.42;100.00
43119;BME280;28729;49.838;8.650;2023-12-20T03:39:53;99771.75;;;5.46;100.00
43119;BME280;28729;49.838;8.650;2023-12-20T03:43:55;99771.75;;;5.46;100.00
43119;BME280;28729;49.838;8.650;2023-12-20T03:47:56;99770.06;;;5.45;100.00
43119;BME280;28729;49.838;8.650;2023-12-20T03:51:58;99772.16;;;5.50;100.00
43119;BME280;28729;49.838;8.650;2023-12-20T03:56:00;99774.28;;;5.48;100.00
43119;BME280;28729;49.838;8.650;2023-12-20T04:00:02;99783.50;;;5.47;100.00
43119;BME280;28729;49.838;8.650;2023-12-20T04:04:13;99781.41;;;5.49;100.00
43119;BME280;28729;49.838;8.650;2023-12-20T04:08:15;99791.28;;;5.50;100.00
43119;BME280;28729;49.838;8.650;2023-12-20T04:12:17;99790.25;;;5.51;100.00
43119;BME280;28729;49.838;8.650;2023-12-20T04:16:18;99786.84;;;5.56;100.00
43119;BME280;28729;49.838;8.650;2023-12-20T04:20:20;99776.53;;;5.58;100.00
43119;BME280;28729;49.838;8.650;2023-12-20T04:24:22;99793.56;;;5.60;100.00
43119;BME280;28729;49.838;8.650;2023-12-20T04:28:24;99804.66;;;5.65;100.00
43119;BME280;28729;49.838;8.650;2023-12-20T04:32:27;99811.19;;;5.64;100.00
43119;BME280;28729;49.838;8.650;2023-12-20T04:36:29;99799.38;;;5.70;100.00
43119;BME280;28729;49.838;8.650;2023-12-20T04:40:31;99811.16;;;5.77;100.00
43119;BME280;28729;49.838;8.650;2023-12-20T04:44:33;99813.25;;;5.75;100.00
43119;BME280;28729;49.838;8.650;2023-12-20T04:48:35;99812.81;;;5.78;100.00
43119;BME280;28729;49.838;8.650;2023-12-20T04:52:37;99817.22;;;5.79;100.00
43119;BME280;28729;49.838;8.650;2023-12-20T04:56:39;99828.16;;;5.79;100.00
43119;BME280;28729;49.838;8.650;2023-12-20T05:00:41;99833.47;;;5.74;100.00
43119;BME280;28729;49.838;8.650;2023-12-20T05:04:42;99839.75;;;5.75;100.00
43119;BME280;28729;49.838;8.650;2023-12-20T05:08:44;99837.66;;;5.70;100.00
43119;BME280;28729;49.838;8.650;2023-12-20T05:12:46;99838.59;;;5.44;100.00
43119;BME280;28729;49.838;8.650;2023-12-20T05:16:48;99851.28;;;5.25;100.00
43119;BME280;28729;49.838;8.650;2023-12-20T05:20:50;99858.03;;;5.16;100.00
43119;BME280;28729;49.838;8.650;2023-12-20T05:24:55;99859.50;;;5.05;100.00
43119;BME280;28729;49.838;8.650;2023-12-20T05:28:57;99858.47;;;4.99;100.00
43119;BME280;28729;49.838;8.650;2023-12-20T05:32:58;99867.50;;;4.93;100.00
43119;BME280;28729;49.838;8.650;2023-12-20T05:37:00;99875.69;;;4.93;100.00
43119;BME280;28729;49.838;8.650;2023-12-20T05:41:03;99886.63;;;4.93;100.00
43119;BME280;28729;49.838;8.650;2023-12-20T05:45:05;99882.63;;;4.96;100.00
43119;BME280;28729;49.838;8.650;2023-12-20T05:49:07;99893.97;;;4.99;100.00
43119;BME280;28729;49.838;8.650;2023-12-20T05:53:09;99893.78;;;4.94;100.00
43119;BME280;28729;49.838;8.650;2023-12-20T05:57:11;99892.75;;;4.82;100.00
43119;BME280;28729;49.838;8.650;2023-12-20T06:01:14;99898.00;;;4.70;100.00
43119;BME280;28729;49.838;8.650;2023-12-20T06:05:16;99902.16;;;4.60;100.00
43119;BME280;28729;49.838;8.650;2023-12-20T06:09:18;99902.19;;;4.53;100.00
43119;BME280;28729;49.838;8.650;2023-12-20T06:13:21;99911.63;;;4.50;100.00
43119;BME280;28729;49.838;8.650;2023-12-20T06:17:22;99903.00;;;4.47;100.00
43119;BME280;28729;49.838;8.650;2023-12-20T06:21:24;99906.16;;;4.44;100.00
43119;BME280;28729;49.838;8.650;2023-12-20T06:25:26;99916.44;;;4.48;100.00
43119;BME280;28729;49.838;8.650;2023-12-20T06:29:28;99917.25;;;4.49;100.00
43119;BME280;28729;49.838;8.650;2023-12-20T06:33:30;99914.94;;;4.39;100.00
43119;BME280;28729;49.838;8.650;2023-12-20T06:37:32;99928.34;;;4.27;100.00
43119;BME280;28729;49.838;8.650;2023-12-20T06:41:34;99928.09;;;4.16;100.00
43119;BME280;28729;49.838;8.650;2023-12-20T06:45:36;99926.63;;;4.06;100.00
43119;BME280;28729;49.838;8.650;2023-12-20T06:49:37;99917.78;;;3.98;100.00
43119;BME280;28729;49.838;8.650;2023-12-20T06:53:39;99905.78;;;3.92;100.00
43119;BME280;28729;49.838;8.650;2023-12-20T06:57:41;99920.88;;;3.88;100.00
43119;BME280;28729;49.838;8.650;2023-12-20T07:01:47;99939.72;;;3.83;100.00
43119;BME280;28729;49.838;8.650;2023-12-20T07:05:49;99931.34;;;3.78;100.00
43119;BME280;28729;49.838;8.650;2023-12-20T07:09:51;99925.03;;;3.77;100.00
43119;BME280;28729;49.838;8.650;2023-12-20T07:13:53;99932.78;;;3.80;100.00
43119;BME280;28729;49.838;8.650;2023-12-20T07:17:55;99932.38;;;3.77;100.00
43119;BME280;28729;49.838;8.650;2023-12-20T07:21:57;99927.75;;;3.77;100.00
43119;BME280;28729;49.838;8.650;2023-12-20T07:25:59;99927.97;;;3.76;100.00
43119;BME280;28729;49.838;8.650;2023-12-20T07:30:01;99933.00;;;3.79;100.00
43119;BME280;28729;49.838;8.650;2023-12-20T07:34:03;99943.50;;;3.82;100.00
43119;BME280;28729;49.838;8.650;2023-12-20T07:38:05;99948.31;;;3.80;100.00
43119;BME280;28729;49.838;8.650;2023-12-20T07:42:08;99945.59;;;3.80;100.00
43119;BME280;28729;49.838;8.650;2023-12-20T07:46:10;99961.56;;;3.89;100.00
43119;BME280;28729;49.838;8.650;2023-12-20T07:50:12;99958.50;;;4.13;100.00
43119;BME280;28729;49.838;8.650;2023-12-20T07:54:14;99957.09;;;4.30;100.00
43119;BME280;28729;49.838;8.650;2023-12-20T07:58:16;99965.13;;;4.38;100.00
43119;BME280;28729;49.838;8.650;2023-12-20T08:02:18;99965.13;;;4.51;100.00
43119;BME280;28729;49.838;8.650;2023-12-20T08:06:21;99958.66;;;4.66;100.00
43119;BME280;28729;49.838;8.650;2023-12-20T08:10:23;99960.97;;;4.75;100.00
43119;BME280;28729;49.838;8.650;2023-12-20T08:14:25;99972.75;;;4.76;100.00
43119;BME280;28729;49.838;8.650;2023-12-20T08:18:27;99967.91;;;4.65;100.00
43119;BME280;28729;49.838;8.650;2023-12-20T08:22:29;99961.78;;;4.56;100.00
43119;BME280;28729;49.838;8.650;2023-12-20T08:26:32;99976.91;;;4.59;100.00
43119;BME280;28729;49.838;8.650;2023-12-20T08:30:33;99990.38;;;4.80;100.00
43119;BME280;28729;49.838;8.650;2023-12-20T08:34:35;99991.44;;;4.99;100.00
43119;BME280;28729;49.838;8.650;2023-12-20T08:38:37;99986.19;;;5.11;100.00
43119;BME280;28729;49.838;8.650;2023-12-20T08:42:39;99991.25;;;5.14;100.00
43119;BME280;28729;49.838;8.650;2023-12-20T08:46:41;100000.91;;;5.16;100.00
43119;BME280;28729;49.838;8.650;2023-12-20T08:50:43;99993.97;;;5.20;100.00
43119;BME280;28729;49.838;8.650;2023-12-20T08:54:45;99998.00;;;5.18;100.00
43119;BME280;28729;49.838;8.650;2023-12-20T08:58:47;99992.09;;;5.28;100.00
43119;BME280;28729;49.838;8.650;2023-12-20T09:02:49;99987.88;;;5.38;100.00
43119;BME280;28729;49.838;8.650;2023-12-20T09:06:50;99994.59;;;5.49;100.00
43119;BME280;28729;49.838;8.650;2023-12-20T09:10:52;99994.59;;;5.49;100.00
43119;BME280;28729;49.838;8.650;2023-12-20T09:14:54;99998.56;;;5.53;100.00
43119;BME280;28729;49.838;8.650;2023-12-20T09:18:57;99991.41;;;5.59;100.00
43119;BME280;28729;49.838;8.650;2023-12-20T09:22:59;99992.03;;;5.67;100.00
43119;BME280;28729;49.838;8.650;2023-12-20T09:27:01;100000.44;;;5.72;100.00
43119;BME280;28729;49.838;8.650;2023-12-20T09:31:04;99994.97;;;5.72;100.00
43119;BME280;28729;49.838;8.650;2023-12-20T09:35:07;99999.19;;;5.75;100.00
43119;BME280;28729;49.838;8.650;2023-12-20T09:39:10;99990.75;;;5.77;100.00
43119;BME280;28729;49.838;8.650;2023-12-20T09:43:14;99984.41;;;5.83;100.00
43119;BME280;28729;49.838;8.650;2023-12-20T09:47:22;99983.59;;;5.96;100.00
43119;BME280;28729;49.838;8.650;2023-12-20T09:51:25;99978.94;;;6.03;100.00
43119;BME280;28729;49.838;8.650;2023-12-20T09:55:28;100003.72;;;6.14;100.00
43119;BME280;28729;49.838;8.650;2023-12-20T09:59:31;99991.31;;;6.12;100.00
43119;BME280;28729;49.838;8.650;2023-12-20T10:03:33;99994.88;;;6.19;100.00
43119;BME280;28729;49.838;8.650;2023-12-20T10:07:36;100002.22;;;6.25;100.00
43119;BME280;28729;49.838;8.650;2023-12-20T10:11:39;100000.91;;;6.34;100.00
43119;BME280;28729;49.838;8.650;2023-12-20T10:15:40;99990.16;;;6.39;100.00
43119;BME280;28729;49.838;8.650;2023-12-20T10:19:44;99980.00;;;6.47;100.00
43119;BME280;28729;49.838;8.650;2023-12-20T10:23:46;99983.75;;;6.52;100.00
43119;BME280;28729;49.838;8.650;2023-12-20T10:27:49;99972.19;;;6.50;100.00
43119;BME280;28729;49.838;8.650;2023-12-20T10:31:52;99972.13;;;6.57;100.00
43119;BME280;28729;49.838;8.650;2023-12-20T10:36:00;99968.97;;;6.60;100.00
43119;BME280;28729;49.838;8.650;2023-12-20T10:40:03;99959.47;;;6.62;100.00
43119;BME280;28729;49.838;8.650;2023-12-20T10:44:05;99959.22;;;6.71;100.00
43119;BME280;28729;49.838;8.650;2023-12-20T10:48:10;99954.94;;;6.81;100.00
43119;BME280;28729;49.838;8.650;2023-12-20T10:52:12;99949.84;;;6.85;100.00
43119;BME280;28729;49.838;8.650;2023-12-20T10:56:17;99952.97;;;6.89;100.00
43119;BME280;28729;49.838;8.650;2023-12-20T11:00:21;99962.38;;;6.99;100.00
43119;BME280;28729;49.838;8.650;2023-12-20T11:04:34;99950.63;;;6.92;100.00
43119;BME280;28729;49.838;8.650;2023-12-20T11:08:52;99947.69;;;6.94;100.00
43119;BME280;28729;49.838;8.650;2023-12-20T11:13:01;99942.78;;;6.96;100.00
43119;BME280;28729;49.838;8.650;2023-12-20T11:17:13;99949.91;;;7.03;100.00
43119;BME280;28729;49.838;8.650;2023-12-20T11:21:19;99937.94;;;6.98;100.00
43119;BME280;28729;49.838;8.650;2023-12-20T11:25:21;99930.34;;;7.00;100.00
43119;BME280;28729;49.838;8.650;2023-12-20T11:29:36;99929.28;;;7.01;100.00
43119;BME280;28729;49.838;8.650;2023-12-20T11:33:39;99931.56;;;7.04;100.00
43119;BME280;28729;49.838;8.650;2023-12-20T11:37:41;99932.63;;;7.03;100.00
43119;BME280;28729;49.838;8.650;2023-12-20T11:41:45;99937.66;;;7.06;100.00
43119;BME280;28729;49.838;8.650;2023-12-20T11:45:49;99934.53;;;7.02;100.00
43119;BME280;28729;49.838;8.650;2023-12-20T11:49:52;99934.31;;;7.04;100.00
43119;BME280;28729;49.838;8.650;2023-12-20T11:53:54;99929.91;;;7.03;100.00
43119;BME280;28729;49.838;8.650;2023-12-20T11:57:56;99930.34;;;7.00;100.00
43119;BME280;28729;49.838;8.650;2023-12-20T12:01:58;99929.06;;;7.02;100.00
43119;BME280;28729;49.838;8.650;2023-12-20T12:06:03;99924.25;;;6.98;100.00
43119;BME280;28729;49.838;8.650;2023-12-20T12:10:07;99932.06;;;6.94;100.00
43119;BME280;28729;49.838;8.650;2023-12-20T12:14:09;99931.25;;;6.94;100.00
43119;BME280;28729;49.838;8.650;2023-12-20T12:18:16;99937.16;;;6.91;100.00
43119;BME280;28729;49.838;8.650;2023-12-20T12:22:18;99939.66;;;6.92;100.00
43119;BME280;28729;49.838;8.650;2023-12-20T12:26:24;99947.72;;;6.87;100.00
43119;BME280;28729;49.838;8.650;2023-12-20T12:30:26;99928.72;;;6.92;100.00
43119;BME280;28729;49.838;8.650;2023-12-20T12:34:36;99910.78;;;6.96;100.00
43119;BME280;28729;49.838;8.650;2023-12-20T12:38:38;99906.91;;;7.04;100.00
43119;BME280;28729;49.838;8.650;2023-12-20T12:42:41;99897.50;;;7.18;100.00
43119;BME280;28729;49.838;8.650;2023-12-20T12:46:48;99882.78;;;7.38;100.00
43119;BME280;28729;49.838;8.650;2023-12-20T12:50:52;99870.88;;;7.62;100.00
43119;BME280;28729;49.838;8.650;2023-12-20T12:54:59;99867.97;;;7.75;100.00
43119;BME280;28729;49.838;8.650;2023-12-20T12:59:01;99868.44;;;7.72;100.00
43119;BME280;28729;49.838;8.650;2023-12-20T13:03:03;99866.31;;;7.74;100.00
43119;BME280;28729;49.838;8.650;2023-12-20T13:07:05;99848.03;;;7.68;100.00
43119;BME280;28729;49.838;8.650;2023-12-20T13:11:07;99830.91;;;7.85;100.00
43119;BME280;28729;49.838;8.650;2023-12-20T13:15:09;99818.59;;;7.75;100.00
43119;BME280;28729;49.838;8.650;2023-12-20T13:19:11;99810.56;;;7.62;100.00
43119;BME280;28729;49.838;8.650;2023-12-20T13:23:13;99803.22;;;7.74;100.00
43119;BME280;28729;49.838;8.650;2023-12-20T13:27:15;99796.34;;;7.84;100.00
43119;BME280;28729;49.838;8.650;2023-12-20T13:31:17;99795.22;;;8.03;100.00
43119;BME280;28729;49.838;8.650;2023-12-20T13:35:18;99806.38;;;8.32;100.00
43119;BME280;28729;49.838;8.650;2023-12-20T13:39:21;99791.81;;;8.31;100.00
43119;BME280;28729;49.838;8.650;2023-12-20T13:43:23;99789.78;;;8.27;100.00
43119;BME280;28729;49.838;8.650;2023-12-20T13:47:26;99795.00;;;8.16;100.00
43119;BME280;28729;49.838;8.650;2023-12-20T13:51:28;99785.59;;;8.12;100.00
43119;BME280;28729;49.838;8.650;2023-12-20T13:55:30;99781.72;;;8.02;100.00
43119;BME280;28729;49.838;8.650;2023-12-20T13:59:32;99787.69;;;7.98;100.00
43119;BME280;28729;49.838;8.650;2023-12-20T14:03:34;99781.25;;;8.05;100.00
43119;BME280;28729;49.838;8.650;2023-12-20T14:07:36;99807.75;;;8.11;100.00
43119;BME280;28729;49.838;8.650;2023-12-20T14:11:38;99811.06;;;8.01;100.00
43119;BME280;28729;49.838;8.650;2023-12-20T14:15:42;99794.09;;;7.92;100.00
43119;BME280;28729;49.838;8.650;2023-12-20T14:19:44;99802.44;;;7.86;100.00
43119;BME280;28729;49.838;8.650;2023-12-20T14:23:46;99795.34;;;7.78;100.00
43119;BME280;28729;49.838;8.650;2023-12-20T14:27:50;99805.97;;;7.74;100.00
43119;BME280;28729;49.838;8.650;2023-12-20T14:31:52;99804.88;;;7.75;100.00
43119;BME280;28729;49.838;8.650;2023-12-20T14:35:54;99799.19;;;7.77;100.00
43119;BME280;28729;49.838;8.650;2023-12-20T14:39:56;99798.13;;;7.60;100.00
43119;BME280;28729;49.838;8.650;2023-12-20T14:43:58;99795.09;;;7.49;100.00
43119;BME280;28729;49.838;8.650;2023-12-20T14:48:01;99790.47;;;7.50;100.00
43119;BME280;28729;49.838;8.650;2023-12-20T14:52:03;99788.47;;;7.57;100.00
43119;BME280;28729;49.838;8.650;2023-12-20T14:56:09;99793.47;;;7.60;100.00
43119;BME280;28729;49.838;8.650;2023-12-20T15:00:11;99796.97;;;7.67;100.00
43119;BME280;28729;49.838;8.650;2023-12-20T15:04:18;99810.66;;;7.67;100.00
43119;BME280;28729;49.838;8.650;2023-12-20T15:08:23;99800.50;;;7.56;100.00
43119;BME280;28729;49.838;8.650;2023-12-20T15:12:25;99797.69;;;7.44;100.00
43119;BME280;28729;49.838;8.650;2023-12-20T15:16:27;99795.72;;;7.33;100.00
43119;BME280;28729;49.838;8.650;2023-12-20T15:20:29;99788.72;;;7.19;100.00
43119;BME280;28729;49.838;8.650;2023-12-20T15:24:31;99774.78;;;7.20;100.00
43119;BME280;28729;49.838;8.650;2023-12-20T15:28:40;99776.38;;;7.10;100.00
43119;BME280;28729;49.838;8.650;2023-12-20T15:32:42;99766.25;;;7.10;100.00
43119;BME280;28729;49.838;8.650;2023-12-20T15:36:44;99772.66;;;7.04;100.00
43119;BME280;28729;49.838;8.650;2023-12-20T15:40:46;99766.34;;;7.03;100.00
43119;BME280;28729;49.838;8.650;2023-12-20T15:44:47;99762.38;;;6.99;100.00
43119;BME280;28729;49.838;8.650;2023-12-20T15:48:49;99767.69;;;6.94;100.00
43119;BME280;28729;49.838;8.650;2023-12-20T15:52:53;99768.53;;;6.95;100.00
43119;BME280;28729;49.838;8.650;2023-12-20T15:56:55;99777.81;;;6.94;100.00
43119;BME280;28729;49.838;8.650;2023-12-20T16:00:57;99770.66;;;6.93;100.00
43119;BME280;28729;49.838;8.650;2023-12-20T16:04:59;99774.25;;;6.93;100.00
43119;BME280;28729;49.838;8.650;2023-12-20T16:09:01;99774.63;;;6.97;100.00
43119;BME280;28729;49.838;8.650;2023-12-20T16:13:04;99776.38;;;6.91;100.00
43119;BME280;28729;49.838;8.650;2023-12-20T16:17:06;99768.53;;;6.95;100.00
43119;BME280;28729;49.838;8.650;2023-12-20T16:21:08;99776.28;;;6.98;100.00
43119;BME280;28729;49.838;8.650;2023-12-20T16:25:10;99770.28;;;6.89;100.00
43119;BME280;28729;49.838;8.650;2023-12-20T16:29:12;99774.53;;;6.85;100.00
43119;BME280;28729;49.838;8.650;2023-12-20T16:33:15;99775.75;;;6.89;100.00
43119;BME280;28729;49.838;8.650;2023-12-20T16:37:17;99782.69;;;6.92;100.00
43119;BME280;28729;49.838;8.650;2023-12-20T16:41:20;99790.28;;;6.90;100.00
43119;BME280;28729;49.838;8.650;2023-12-20T16:45:22;99799.28;;;6.97;100.00
43119;BME280;28729;49.838;8.650;2023-12-20T16:49:24;99789.16;;;6.97;100.00
43119;BME280;28729;49.838;8.650;2023-12-20T16:53:26;99787.88;;;7.00;100.00
43119;BME280;28729;49.838;8.650;2023-12-20T16:57:29;99782.97;;;7.02;100.00
43119;BME280;28729;49.838;8.650;2023-12-20T17:01:32;99784.88;;;7.01;100.00
43119;BME280;28729;49.838;8.650;2023-12-20T17:05:34;99775.63;;;7.02;100.00
43119;BME280;28729;49.838;8.650;2023-12-20T17:09:36;99768.69;;;7.00;100.00
43119;BME280;28729;49.838;8.650;2023-12-20T17:13:38;99762.06;;;7.07;100.00
43119;BME280;28729;49.838;8.650;2023-12-20T17:17:40;99755.84;;;7.00;100.00
43119;BME280;28729;49.838;8.650;2023-12-20T17:21:45;99753.47;;;7.04;100.00
43119;BME280;28729;49.838;8.650;2023-12-20T17:25:47;99758.50;;;7.07;100.00
43119;BME280;28729;49.838;8.650;2023-12-20T17:29:48;99771.16;;;7.08;100.00
43119;BME280;28729;49.838;8.650;2023-12-20T17:33:50;99767.53;;;7.07;100.00
43119;BME280;28729;49.838;8.650;2023-12-20T17:37:52;99753.00;;;7.07;100.00
43119;BME280;28729;49.838;8.650;2023-12-20T17:41:54;99760.09;;;7.15;100.00
43119;BME280;28729;49.838;8.650;2023-12-20T17:45:57;99759.25;;;7.14;100.00
43119;BME280;28729;49.838;8.650;2023-12-20T17:49:59;99772.97;;;7.14;100.00
43119;BME280;28729;49.838;8.650;2023-12-20T17:54:00;99768.06;;;7.16;100.00
43119;BME280;28729;49.838;8.650;2023-12-20T17:58:05;99767.03;;;7.17;100.00
43119;BME280;28729;49.838;8.650;2023-12-20T18:02:07;99764.75;;;7.14;100.00
43119;BME280;28729;49.838;8.650;2023-12-20T18:06:10;99770.81;;;7.16;100.00
43119;BME280;28729;49.838;8.650;2023-12-20T18:10:12;99763.84;;;7.20;100.00
43119;BME280;28729;49.838;8.650;2023-12-20T18:14:15;99771.34;;;7.25;100.00
43119;BME280;28729;49.838;8.650;2023-12-20T18:18:16;99766.13;;;7.23;100.00
43119;BME280;28729;49.838;8.650;2023-12-20T18:22:20;99760.38;;;7.25;100.00
43119;BME280;28729;49.838;8.650;2023-12-20T18:26:22;99742.91;;;7.26;100.00
43119;BME280;28729;49.838;8.650;2023-12-20T18:30:24;99745.38;;;7.27;100.00
43119;BME280;28729;49.838;8.650;2023-12-20T18:34:26;99749.22;;;7.26;100.00
43119;BME280;28729;49.838;8.650;2023-12-20T18:38:28;99723.09;;;7.24;100.00
43119;BME280;28729;49.838;8.650;2023-12-20T18:42:31;99731.69;;;7.27;100.00
43119;BME280;28729;49.838;8.650;2023-12-20T18:46:34;99728.94;;;7.27;100.00
43119;BME280;28729;49.838;8.650;2023-12-20T18:50:36;99721.91;;;7.20;100.00
43119;BME280;28729;49.838;8.650;2023-12-20T18:54:39;99718.06;;;7.21;100.00
43119;BME280;28729;49.838;8.650;2023-12-20T18:58:40;99731.31;;;7.24;100.00
43119;BME280;28729;49.838;8.650;2023-12-20T19:02:47;99715.25;;;7.27;100.00
43119;BME280;28729;49.838;8.650;2023-12-20T19:06:50;99710.38;;;7.29;100.00
43119;BME280;28729;49.838;8.650;2023-12-20T19:10:59;99693.31;;;7.27;100.00
43119;BME280;28729;49.838;8.650;2023-12-20T19:15:01;99698.19;;;7.25;100.00
43119;BME280;28729;49.838;8.650;2023-12-20T19:19:03;99702.97;;;7.30;100.00
43119;BME280;28729;49.838;8.650;2023-12-20T19:23:05;99707.03;;;7.27;100.00
43119;BME280;28729;49.838;8.650;2023-12-20T19:27:12;99695.13;;;7.34;100.00
43119;BME280;28729;49.838;8.650;2023-12-20T19:31:13;99684.41;;;7.32;100.00
43119;BME280;28729;49.838;8.650;2023-12-20T19:35:17;99680.69;;;7.26;100.00
43119;BME280;28729;49.838;8.650;2023-12-20T19:39:19;99682.97;;;7.29;100.00
43119;BME280;28729;49.838;8.650;2023-12-20T19:43:22;99687.28;;;7.37;100.00
43119;BME280;28729;49.838;8.650;2023-12-20T19:47:23;99688.34;;;7.36;100.00
43119;BME280;28729;49.838;8.650;2023-12-20T19:51:25;99680.13;;;7.36;100.00
43119;BME280;28729;49.838;8.650;2023-12-20T19:55:27;99674.88;;;7.35;100.00
43119;BME280;28729;49.838;8.650;2023-12-20T19:59:29;99670.59;;;7.39;100.00
43119;BME280;28729;49.838;8.650;2023-12-20T20:03:34;99664.97;;;7.34;100.00
43119;BME280;28729;49.838;8.650;2023-12-20T20:07:36;99665.44;;;7.30;100.00
43119;BME280;28729;49.838;8.650;2023-12-20T20:11:37;99671.69;;;7.38;100.00
43119;BME280;28729;49.838;8.650;2023-12-20T20:15:40;99661.03;;;7.29;100.00
43119;BME280;28729;49.838;8.650;2023-12-20T20:19:42;99657.47;;;7.29;100.00
43119;BME280;28729;49.838;8.650;2023-12-20T20:23:44;99659.97;;;7.30;100.00
43119;BME280;28729;49.838;8.650;2023-12-20T20:27:45;99653.88;;;7.28;100.00
43119;BME280;28729;49.838;8.650;2023-12-20T20:31:48;99636.69;;;7.21;100.00
43119;BME280;28729;49.838;8.650;2023-12-20T20:35:50;99616.34;;;7.29;100.00
43119;BME280;28729;49.838;8.650;2023-12-20T20:39:52;99614.75;;;7.21;100.00
43119;BME280;28729;49.838;8.650;2023-12-20T20:43:54;99615.88;;;7.32;100.00
43119;BME280;28729;49.838;8.650;2023-12-20T20:47:56;99604.06;;;7.31;100.00
43119;BME280;28729;49.838;8.650;2023-12-20T20:52:11;99598.00;;;7.29;100.00
43119;BME280;28729;49.838;8.650;2023-12-20T20:56:13;99593.09;;;7.31;100.00
43119;BME280;28729;49.838;8.650;2023-12-20T21:00:16;99601.09;;;7.33;100.00
43119;BME280;28729;49.838;8.650;2023-12-20T21:04:18;99589.31;;;7.33;100.00
43119;BME280;28729;49.838;8.650;2023-12-20T21:08:20;99588.38;;;7.39;100.00
43119;BME280;28729;49.838;8.650;2023-12-20T21:12:22;99578.72;;;7.36;100.00
43119;BME280;28729;49.838;8.650;2023-12-20T21:16:26;99568.94;;;7.40;100.00
43119;BME280;28729;49.838;8.650;2023-12-20T21:20:29;99559.88;;;7.40;100.00
43119;BME280;28729;49.838;8.650;2023-12-20T21:24:32;99552.88;;;7.44;100.00